Time;durP1;ratioP1;P1;durP2;ratioP2;P2;SDS_P1;SDS_P2;PMS_P1;PMS_P2;Temp;Humidity;BMP_temperature;BMP_pressure;BME280_temperature;BME280_humidity;BME280_pressure;Samples;Min_cycle;Max_cycle;Signal;HPM_P1;HPM_P2
2022/03/07 00:01:04;;;;;;;0.68;0.68;;;2.60;99.90;;;;;;4432713;32;20521;-64
2022/03/07 00:03:29;;;;;;;0.57;0.57;;;2.70;99.90;;;;;;4441673;32;20538;-64
2022/03/07 00:05:55;;;;;;;0.73;0.73;;;2.60;99.90;;;;;;4439529;32;20081;-64
2022/03/07 00:08:20;;;;;;;1.27;1.02;;;2.60;99.90;;;;;;4437343;32;20506;-64
2022/03/07 00:10:46;;;;;;;0.80;0.80;;;2.60;99.90;;;;;;4431249;32;20057;-64
2022/03/07 00:13:11;;;;;;;0.43;0.43;;;2.60;99.90;;;;;;4436803;32;20486;-64
2022/03/07 00:15:38;;;;;;;0.85;0.85;;;2.50;99.90;;;;;;4445238;32;20053;-64
2022/03/07 00:18:03;;;;;;;0.50;0.50;;;2.60;99.90;;;;;;4441082;32;20473;-64
2022/03/07 00:20:30;;;;;;;0.50;0.50;;;2.60;99.90;;;;;;4443339;32;20061;-64
2022/03/07 00:22:55;;;;;;;0.57;0.57;;;2.60;99.90;;;;;;4443180;32;20061;-64
2022/03/07 00:25:21;;;;;;;0.75;0.65;;;2.70;99.90;;;;;;4442493;32;20089;-64
2022/03/07 00:27:46;;;;;;;0.30;0.30;;;2.60;99.90;;;;;;4443276;32;20096;-64
2022/03/07 00:30:12;;;;;;;0.45;0.45;;;2.60;99.90;;;;;;4428740;32;20065;-64
2022/03/07 00:32:37;;;;;;;0.60;0.60;;;2.60;99.90;;;;;;4428397;32;20164;-64
2022/03/07 00:35:03;;;;;;;0.60;0.60;;;2.60;99.90;;;;;;4441632;32;20061;-64
2022/03/07 00:37:30;;;;;;;0.45;0.45;;;2.40;99.90;;;;;;4442882;32;20061;-64
2022/03/07 00:39:56;;;;;;;1.27;0.85;;;2.30;99.90;;;;;;4435632;32;20057;-64
2022/03/07 00:42:21;;;;;;;0.75;0.75;;;2.40;99.90;;;;;;4435435;32;20122;-64
2022/03/07 00:44:47;;;;;;;1.40;1.30;;;2.30;99.90;;;;;;4425674;32;20090;-64
2022/03/07 00:47:12;;;;;;;0.50;0.50;;;2.20;99.90;;;;;;4439558;32;20663;-64
2022/03/07 00:49:38;;;;;;;0.50;0.50;;;2.10;99.90;;;;;;4435877;32;20081;-64
2022/03/07 00:52:03;;;;;;;0.57;0.57;;;2.10;99.90;;;;;;4441325;32;20140;-64
2022/03/07 00:54:29;;;;;;;0.60;0.60;;;2.10;99.90;;;;;;4429078;32;20414;-64
2022/03/07 00:56:54;;;;;;;1.08;0.98;;;2.00;99.90;;;;;;4434979;32;20560;-64
2022/03/07 00:59:20;;;;;;;0.60;0.60;;;2.00;99.90;;;;;;4439245;32;20120;-64
2022/03/07 01:01:46;;;;;;;0.88;0.85;;;1.90;99.90;;;;;;4427599;32;20061;-64
2022/03/07 01:04:11;;;;;;;0.52;0.52;;;1.80;99.90;;;;;;4435350;32;20090;-64
2022/03/07 01:06:37;;;;;;;0.57;0.57;;;1.80;99.90;;;;;;4431607;32;20082;-64
2022/03/07 01:09:02;;;;;;;0.50;0.50;;;1.80;99.90;;;;;;4442338;32;20060;-64
2022/03/07 01:11:28;;;;;;;0.55;0.55;;;1.60;99.90;;;;;;4440944;32;20100;-64
2022/03/07 01:13:53;;;;;;;0.70;0.70;;;1.60;99.90;;;;;;4441933;32;20061;-64
2022/03/07 01:16:19;;;;;;;0.52;0.52;;;1.70;99.90;;;;;;4435055;32;20131;-64
2022/03/07 01:18:44;;;;;;;2.05;1.35;;;1.70;99.90;;;;;;4440197;32;20501;-64
2022/03/07 01:21:12;;;;;;;0.80;0.80;;;1.60;99.90;;;;;;4438182;32;20082;-64
2022/03/07 01:23:37;;;;;;;3.53;1.58;;;1.50;99.90;;;;;;4418962;32;20132;-64
2022/03/07 01:26:03;;;;;;;0.70;0.70;;;1.50;99.90;;;;;;4439125;32;20521;-64
2022/03/07 01:28:28;;;;;;;0.43;0.43;;;1.60;99.90;;;;;;4440338;32;20069;-64
2022/03/07 01:30:54;;;;;;;1.55;1.15;;;1.50;99.90;;;;;;4434979;32;20069;-64
2022/03/07 01:33:19;;;;;;;0.57;0.57;;;1.30;99.90;;;;;;4426306;32;20426;-64
2022/03/07 01:35:45;;;;;;;0.68;0.68;;;1.30;99.90;;;;;;4442723;32;20600;-64
2022/03/07 01:38:10;;;;;;;0.50;0.50;;;1.20;99.90;;;;;;4439287;32;20073;-64
2022/03/07 01:40:36;;;;;;;0.45;0.45;;;1.20;99.90;;;;;;4435268;32;20514;-63
2022/03/07 01:43:01;;;;;;;0.40;0.40;;;1.10;99.90;;;;;;4431734;32;20131;-63
2022/03/07 01:45:27;;;;;;;0.62;0.62;;;0.90;99.90;;;;;;4433159;32;20112;-63
2022/03/07 01:47:53;;;;;;;0.50;0.50;;;1.00;99.90;;;;;;4440210;32;20552;-63
2022/03/07 01:50:19;;;;;;;0.55;0.55;;;1.00;99.90;;;;;;4426960;32;20233;-63
2022/03/07 01:52:47;;;;;;;0.60;0.60;;;0.80;99.90;;;;;;4430781;32;20065;-63
2022/03/07 01:55:15;;;;;;;0.40;0.40;;;0.90;99.90;;;;;;4439608;32;20089;-63
2022/03/07 01:57:42;;;;;;;0.52;0.52;;;1.00;99.90;;;;;;4439488;32;20078;-63
2022/03/07 02:00:14;;;;;;;0.52;0.52;;;1.00;99.90;;;;;;4436048;32;20082;-63
2022/03/07 02:02:40;;;;;;;0.65;0.62;;;0.90;99.90;;;;;;4441648;32;20061;-63
2022/03/07 02:05:06;;;;;;;0.95;0.73;;;0.80;99.90;;;;;;4428123;32;20097;-63
2022/03/07 02:07:32;;;;;;;0.50;0.50;;;0.60;99.90;;;;;;4441802;32;20548;-63
2022/03/07 02:09:59;;;;;;;0.82;0.82;;;0.60;99.90;;;;;;4440567;32;20061;-62
2022/03/07 02:12:25;;;;;;;1.17;1.12;;;0.60;99.90;;;;;;4428637;32;20057;-64
2022/03/07 02:14:51;;;;;;;0.50;0.50;;;0.50;99.90;;;;;;4427339;32;20060;-63
2022/03/07 02:17:17;;;;;;;0.40;0.40;;;0.60;99.90;;;;;;4440328;32;20414;-63
2022/03/07 02:19:42;;;;;;;2.53;1.58;;;0.60;99.90;;;;;;4426628;32;20065;-63
2022/03/07 02:22:10;;;;;;;0.30;0.30;;;0.60;99.90;;;;;;4427329;32;20108;-63
2022/03/07 02:24:36;;;;;;;1.23;1.10;;;0.70;99.90;;;;;;4444548;32;20080;-63
2022/03/07 02:27:04;;;;;;;1.77;1.15;;;0.60;99.90;;;;;;4430175;32;20118;-63
2022/03/07 02:29:31;;;;;;;0.82;0.82;;;0.50;99.90;;;;;;4426339;32;20109;-63
2022/03/07 02:31:57;;;;;;;0.40;0.40;;;0.40;99.90;;;;;;4426719;32;20141;-63
2022/03/07 02:34:23;;;;;;;0.40;0.40;;;0.50;99.90;;;;;;4432130;32;20085;-63
2022/03/07 02:36:48;;;;;;;0.60;0.60;;;0.50;99.90;;;;;;4441417;32;20073;-63
2022/03/07 02:39:14;;;;;;;0.47;0.47;;;0.60;99.90;;;;;;4440525;32;20065;-63
2022/03/07 02:41:40;;;;;;;0.50;0.50;;;0.70;99.90;;;;;;4426333;32;20066;-62
2022/03/07 02:44:06;;;;;;;1.08;0.80;;;0.80;99.90;;;;;;4437771;32;20072;-62
2022/03/07 02:46:32;;;;;;;0.45;0.45;;;0.80;99.90;;;;;;4418006;32;20354;-62
2022/03/07 02:48:58;;;;;;;0.40;0.40;;;0.80;99.90;;;;;;4438407;32;20106;-62
2022/03/07 02:51:23;;;;;;;0.57;0.57;;;0.80;99.90;;;;;;4440841;32;20081;-62
2022/03/07 02:53:49;;;;;;;1.08;0.82;;;0.90;99.90;;;;;;4444520;32;20187;-62
2022/03/07 02:56:15;;;;;;;1.02;0.80;;;1.10;99.90;;;;;;4435333;32;20104;-64
2022/03/07 02:58:40;;;;;;;0.50;0.50;;;1.10;99.90;;;;;;4436313;32;20065;-63
2022/03/07 03:01:07;;;;;;;0.50;0.50;;;1.10;99.90;;;;;;4435706;32;20070;-63
2022/03/07 03:03:32;;;;;;;0.40;0.40;;;1.00;99.90;;;;;;4430710;32;20420;-63
2022/03/07 03:05:58;;;;;;;0.45;0.45;;;1.00;99.90;;;;;;4425861;32;20522;-63
2022/03/07 03:08:24;;;;;;;0.60;0.60;;;0.90;99.90;;;;;;4441832;32;20549;-63
2022/03/07 03:10:50;;;;;;;0.50;0.50;;;0.80;99.90;;;;;;4439788;32;20077;-64
2022/03/07 03:13:19;;;;;;;0.47;0.47;;;0.90;99.90;;;;;;4441440;32;20461;-63
2022/03/07 03:15:45;;;;;;;0.62;0.62;;;1.00;99.90;;;;;;4429699;32;20068;-63
2022/03/07 03:18:11;;;;;;;0.50;0.50;;;1.10;99.90;;;;;;4438645;32;20064;-63
2022/03/07 03:20:38;;;;;;;0.60;0.60;;;1.00;99.90;;;;;;4427400;32;20069;-63
2022/03/07 03:23:03;;;;;;;0.40;0.40;;;1.10;99.90;;;;;;4437063;32;20119;-64
2022/03/07 03:25:29;;;;;;;0.50;0.50;;;1.10;99.90;;;;;;4439350;32;20159;-63
2022/03/07 03:27:54;;;;;;;0.40;0.40;;;1.20;99.90;;;;;;4441415;32;20081;-63
2022/03/07 03:30:20;;;;;;;1.30;0.73;;;1.10;99.90;;;;;;4441848;32;20077;-65
2022/03/07 03:32:45;;;;;;;0.40;0.40;;;1.20;99.90;;;;;;4443345;32;20065;-64
2022/03/07 03:35:11;;;;;;;1.65;0.75;;;1.10;99.90;;;;;;4439405;32;20069;-64
2022/03/07 03:37:37;;;;;;;0.62;0.62;;;1.00;99.90;;;;;;4427920;32;20065;-65
2022/03/07 03:40:04;;;;;;;0.43;0.43;;;1.00;99.90;;;;;;4428988;32;20069;-64
2022/03/07 03:42:30;;;;;;;0.43;0.43;;;1.00;99.90;;;;;;4440208;32;20068;-64
2022/03/07 03:44:55;;;;;;;0.70;0.70;;;1.10;99.90;;;;;;4442978;32;20557;-64
2022/03/07 03:47:21;;;;;;;0.50;0.50;;;1.00;99.90;;;;;;4439244;32;20418;-65
2022/03/07 03:49:47;;;;;;;0.60;0.60;;;1.00;99.90;;;;;;4440852;32;20101;-64
2022/03/07 03:52:12;;;;;;;0.40;0.40;;;1.00;99.90;;;;;;4440976;32;20119;-64
2022/03/07 03:54:38;;;;;;;0.45;0.45;;;1.00;99.90;;;;;;4442742;32;20114;-64
2022/03/07 03:57:04;;;;;;;0.60;0.60;;;1.00;99.90;;;;;;4428182;32;20061;-64
2022/03/07 03:59:31;;;;;;;0.50;0.50;;;1.00;99.90;;;;;;4443074;32;20138;-64
2022/03/07 04:01:57;;;;;;;0.62;0.62;;;1.00;99.90;;;;;;4441076;32;20073;-64
2022/03/07 04:04:22;;;;;;;0.62;0.60;;;0.90;99.90;;;;;;4442350;32;21684;-64
2022/03/07 04:06:48;;;;;;;3.03;0.93;;;1.00;99.90;;;;;;4443635;32;20088;-64
2022/03/07 04:09:16;;;;;;;0.45;0.45;;;0.90;99.90;;;;;;4443172;32;20525;-64
2022/03/07 04:11:42;;;;;;;0.50;0.50;;;1.00;99.90;;;;;;4428378;32;20081;-64
2022/03/07 04:14:08;;;;;;;0.50;0.50;;;1.00;99.90;;;;;;4430218;32;20422;-64
2022/03/07 04:16:37;;;;;;;0.40;0.40;;;1.00;99.90;;;;;;4438560;32;20061;-64
2022/03/07 04:19:03;;;;;;;0.82;0.82;;;0.90;99.90;;;;;;4441302;32;20470;-64
2022/03/07 04:21:28;;;;;;;0.60;0.60;;;0.90;99.90;;;;;;4430554;32;20081;-64
2022/03/07 04:23:54;;;;;;;0.40;0.40;;;0.80;99.90;;;;;;4441364;32;20053;-64
2022/03/07 04:26:20;;;;;;;5.28;1.17;;;0.70;99.90;;;;;;4435511;32;20423;-64
2022/03/07 04:28:45;;;;;;;0.40;0.40;;;0.80;99.90;;;;;;4442715;32;20119;-64
2022/03/07 04:31:11;;;;;;;0.57;0.57;;;0.80;99.90;;;;;;4440484;32;20519;-63
2022/03/07 04:33:37;;;;;;;0.50;0.50;;;0.70;99.90;;;;;;4440198;32;20068;-63
2022/03/07 04:36:02;;;;;;;0.52;0.52;;;0.70;99.90;;;;;;4435030;32;20061;-63
2022/03/07 04:38:28;;;;;;;0.75;0.75;;;0.60;99.90;;;;;;4442107;32;20065;-63
2022/03/07 04:40:54;;;;;;;0.50;0.50;;;0.60;99.90;;;;;;4439245;32;20061;-63
2022/03/07 04:43:20;;;;;;;2.55;1.45;;;0.40;99.90;;;;;;4436983;32;20069;-63
2022/03/07 04:45:45;;;;;;;0.70;0.70;;;0.30;99.90;;;;;;4433869;32;20061;-63
2022/03/07 04:48:11;;;;;;;0.40;0.40;;;0.20;99.90;;;;;;4442199;32;20379;-63
2022/03/07 04:50:36;;;;;;;0.50;0.50;;;0.20;99.90;;;;;;4442961;32;20081;-63
2022/03/07 04:53:02;;;;;;;1.45;1.12;;;0.20;99.90;;;;;;4441703;32;20072;-63
2022/03/07 04:55:27;;;;;;;0.60;0.60;;;0.30;99.90;;;;;;4443587;32;20120;-63
2022/03/07 04:57:52;;;;;;;0.40;0.40;;;0.40;99.90;;;;;;4441385;32;20073;-63
2022/03/07 05:00:18;;;;;;;0.70;0.70;;;0.30;99.90;;;;;;4428290;32;20096;-63
2022/03/07 05:02:44;;;;;;;0.40;0.40;;;0.30;99.90;;;;;;4428689;32;20089;-63
2022/03/07 05:05:09;;;;;;;1.58;1.25;;;0.50;99.90;;;;;;4436637;32;20082;-63
2022/03/07 05:07:36;;;;;;;0.40;0.40;;;0.60;99.90;;;;;;4432465;32;20427;-63
2022/03/07 05:10:02;;;;;;;0.55;0.55;;;0.60;99.90;;;;;;4441132;32;20163;-63
2022/03/07 05:12:28;;;;;;;0.50;0.50;;;0.60;99.90;;;;;;4429142;32;20103;-63
2022/03/07 05:14:53;;;;;;;0.45;0.45;;;0.60;99.90;;;;;;4440263;32;20098;-63
2022/03/07 05:17:19;;;;;;;0.55;0.55;;;0.70;99.90;;;;;;4435746;32;20097;-63
2022/03/07 05:19:47;;;;;;;0.82;0.82;;;0.80;99.90;;;;;;4427679;32;20116;-63
2022/03/07 05:22:13;;;;;;;0.70;0.70;;;0.80;99.90;;;;;;4441775;32;20730;-63
2022/03/07 05:24:38;;;;;;;0.45;0.45;;;0.80;99.90;;;;;;4428900;32;20455;-63
2022/03/07 05:27:04;;;;;;;0.40;0.40;;;0.80;99.90;;;;;;4427045;32;20069;-63
2022/03/07 05:29:29;;;;;;;0.50;0.50;;;0.80;99.90;;;;;;4440580;32;20474;-64
2022/03/07 05:31:55;;;;;;;0.47;0.47;;;0.80;99.90;;;;;;4434120;32;20416;-63
2022/03/07 05:34:20;;;;;;;0.40;0.40;;;0.90;99.90;;;;;;4442394;32;20101;-63
2022/03/07 05:36:46;;;;;;;0.55;0.55;;;1.00;99.90;;;;;;4441836;32;20546;-63
2022/03/07 05:39:12;;;;;;;0.47;0.47;;;1.00;99.90;;;;;;4446159;32;20076;-63
2022/03/07 05:41:37;;;;;;;1.33;1.00;;;1.00;99.90;;;;;;4440339;32;20056;-63
2022/03/07 05:44:03;;;;;;;2.05;1.35;;;1.00;99.90;;;;;;4437498;32;20433;-63
2022/03/07 05:46:29;;;;;;;0.55;0.55;;;1.00;99.90;;;;;;4438965;32;20135;-63
2022/03/07 05:48:54;;;;;;;0.70;0.70;;;1.10;99.90;;;;;;4430608;32;20080;-63
2022/03/07 05:51:23;;;;;;;0.50;0.50;;;1.10;99.90;;;;;;4442708;32;20060;-63
2022/03/07 05:53:50;;;;;;;0.40;0.40;;;1.00;99.90;;;;;;4438430;32;22029;-64
2022/03/07 05:56:15;;;;;;;0.60;0.60;;;1.10;99.90;;;;;;4420355;32;20065;-62
2022/03/07 05:58:41;;;;;;;0.57;0.57;;;1.00;99.90;;;;;;4444417;32;20481;-62
2022/03/07 06:01:07;;;;;;;1.02;0.85;;;1.00;99.90;;;;;;4439827;32;20061;-64
2022/03/07 06:03:33;;;;;;;1.02;0.88;;;1.00;99.90;;;;;;4443216;32;20065;-64
2022/03/07 06:05:58;;;;;;;0.55;0.55;;;1.00;99.90;;;;;;4440302;32;20468;-63
2022/03/07 06:08:24;;;;;;;0.65;0.65;;;1.00;99.90;;;;;;4435824;32;20073;-65
2022/03/07 06:10:49;;;;;;;0.50;0.50;;;1.10;99.90;;;;;;4426589;32;20064;-64
2022/03/07 06:13:15;;;;;;;0.60;0.60;;;1.10;99.90;;;;;;4434145;32;20061;-64
2022/03/07 06:15:43;;;;;;;0.85;0.85;;;1.10;99.90;;;;;;4441609;32;20074;-64
2022/03/07 06:18:09;;;;;;;1.00;0.95;;;1.10;99.90;;;;;;4438871;32;20127;-64
2022/03/07 06:20:35;;;;;;;0.40;0.40;;;1.20;99.90;;;;;;4440075;32;20072;-62
2022/03/07 06:23:01;;;;;;;0.60;0.60;;;1.20;99.90;;;;;;4423463;32;20131;-63
2022/03/07 06:25:28;;;;;;;0.40;0.40;;;1.20;99.90;;;;;;4439566;32;20053;-64
2022/03/07 06:27:54;;;;;;;0.52;0.52;;;1.20;99.90;;;;;;4440890;32;20072;-64
2022/03/07 06:30:19;;;;;;;0.50;0.50;;;1.30;99.90;;;;;;4440986;32;20072;-64
2022/03/07 06:32:44;;;;;;;0.40;0.40;;;1.20;99.90;;;;;;4439623;32;20173;-64
2022/03/07 06:35:10;;;;;;;0.30;0.30;;;1.20;99.90;;;;;;4442574;32;20415;-62
2022/03/07 06:37:36;;;;;;;4.65;2.05;;;1.30;99.90;;;;;;4418213;32;20060;-64
2022/03/07 06:40:03;;;;;;;0.57;0.57;;;1.30;99.90;;;;;;4439316;32;20441;-64
2022/03/07 06:42:28;;;;;;;0.40;0.40;;;1.40;99.90;;;;;;4408918;32;20098;-64
2022/03/07 06:44:54;;;;;;;0.75;0.75;;;1.40;99.90;;;;;;4434365;32;20441;-64
2022/03/07 06:47:19;;;;;;;0.45;0.45;;;1.30;99.90;;;;;;4434039;32;20069;-63
2022/03/07 06:49:47;;;;;;;1.48;1.00;;;1.30;99.90;;;;;;4433048;32;20154;-64
2022/03/07 06:52:13;;;;;;;0.68;0.68;;;1.40;99.90;;;;;;4431485;32;20069;-63
2022/03/07 06:54:38;;;;;;;0.73;0.52;;;1.40;99.90;;;;;;4432062;32;20427;-63
2022/03/07 06:57:04;;;;;;;0.50;0.50;;;1.40;99.90;;;;;;4439017;32;20466;-64
2022/03/07 06:59:29;;;;;;;1.65;1.20;;;1.50;99.90;;;;;;4441166;32;20073;-64
2022/03/07 07:01:55;;;;;;;0.50;0.50;;;1.50;99.90;;;;;;4440473;32;20136;-64
2022/03/07 07:04:21;;;;;;;0.40;0.40;;;1.60;99.90;;;;;;4440758;32;20140;-64
2022/03/07 07:06:46;;;;;;;1.12;0.70;;;1.70;99.90;;;;;;4425792;32;20336;-64
2022/03/07 07:09:12;;;;;;;0.95;0.95;;;1.80;99.90;;;;;;4441888;32;20516;-64
2022/03/07 07:11:37;;;;;;;0.80;0.80;;;1.80;99.90;;;;;;4436861;32;20415;-65
2022/03/07 07:14:03;;;;;;;0.40;0.40;;;1.80;99.90;;;;;;4440752;32;20054;-65
2022/03/07 07:16:29;;;;;;;0.70;0.70;;;1.90;99.90;;;;;;4425614;32;20358;-65
2022/03/07 07:18:54;;;;;;;0.80;0.80;;;1.90;99.90;;;;;;4437629;32;20057;-65
2022/03/07 07:21:20;;;;;;;0.75;0.75;;;2.00;99.90;;;;;;4435510;32;20073;-65
2022/03/07 07:23:46;;;;;;;0.60;0.60;;;2.10;99.90;;;;;;4432208;32;20124;-65
2022/03/07 07:26:11;;;;;;;2.95;1.42;;;2.10;99.90;;;;;;4430855;32;20458;-63
2022/03/07 07:28:37;;;;;;;0.60;0.60;;;2.20;99.90;;;;;;4444127;32;20400;-63
2022/03/07 07:31:03;;;;;;;0.52;0.52;;;2.30;99.90;;;;;;4443471;32;20060;-65
2022/03/07 07:33:29;;;;;;;0.52;0.52;;;2.30;99.90;;;;;;4443259;32;20093;-63
2022/03/07 07:35:55;;;;;;;0.60;0.60;;;2.30;99.90;;;;;;4415008;32;102024;-63
2022/03/07 07:38:22;;;;;;;1.37;0.95;;;2.30;99.90;;;;;;4427201;32;20081;-64
2022/03/07 07:40:49;;;;;;;3.85;1.30;;;2.40;99.90;;;;;;4438322;32;20074;-63
2022/03/07 07:43:15;;;;;;;0.50;0.50;;;2.50;99.90;;;;;;4428673;32;20069;-64
2022/03/07 07:45:41;;;;;;;0.40;0.40;;;2.70;99.90;;;;;;4441928;32;20156;-63
2022/03/07 07:48:06;;;;;;;1.92;1.12;;;2.80;99.90;;;;;;4427285;32;20128;-64
2022/03/07 07:50:32;;;;;;;0.75;0.75;;;2.90;99.90;;;;;;4442820;32;20061;-64
2022/03/07 07:52:57;;;;;;;0.50;0.50;;;3.00;99.90;;;;;;4442389;32;20640;-64
2022/03/07 07:55:24;;;;;;;0.40;0.40;;;3.00;99.90;;;;;;4438572;32;20161;-64
2022/03/07 07:57:49;;;;;;;0.77;0.77;;;3.20;99.90;;;;;;4431133;32;20064;-64
2022/03/07 08:00:19;;;;;;;0.60;0.60;;;3.30;99.90;;;;;;4419837;32;20081;-63
2022/03/07 08:02:46;;;;;;;0.90;0.90;;;3.30;99.90;;;;;;4426103;32;20093;-63
2022/03/07 08:05:11;;;;;;;0.40;0.40;;;3.30;99.90;;;;;;4437751;32;20391;-63
2022/03/07 08:07:39;;;;;;;0.80;0.80;;;3.40;99.90;;;;;;4441812;32;20173;-63
2022/03/07 08:10:05;;;;;;;2.33;1.80;;;3.50;99.90;;;;;;4441133;32;20525;-64
2022/03/07 08:12:30;;;;;;;0.50;0.50;;;3.50;99.90;;;;;;4427541;32;20092;-63
2022/03/07 08:14:56;;;;;;;0.50;0.45;;;3.60;99.90;;;;;;4442298;32;20092;-64
2022/03/07 08:17:22;;;;;;;0.95;0.95;;;3.70;99.90;;;;;;4426374;32;20105;-63
2022/03/07 08:19:47;;;;;;;0.90;0.90;;;3.70;99.90;;;;;;4432803;32;20085;-64
2022/03/07 08:22:13;;;;;;;0.52;0.52;;;3.80;99.90;;;;;;4440115;32;20506;-64
2022/03/07 08:24:38;;;;;;;0.40;0.40;;;3.90;99.90;;;;;;4434150;32;20061;-64
2022/03/07 08:27:04;;;;;;;0.40;0.40;;;4.00;99.90;;;;;;4441354;32;20132;-63
2022/03/07 08:29:30;;;;;;;1.67;1.17;;;4.10;99.90;;;;;;4445456;32;20053;-64
2022/03/07 08:31:56;;;;;;;0.40;0.40;;;4.20;99.90;;;;;;4437262;32;20157;-63
2022/03/07 08:34:21;;;;;;;0.60;0.60;;;4.30;99.90;;;;;;4432108;32;20556;-64
2022/03/07 08:36:46;;;;;;;0.43;0.43;;;4.50;99.90;;;;;;4437116;32;20057;-64
2022/03/07 08:39:12;;;;;;;0.68;0.68;;;4.70;99.90;;;;;;4433697;32;20069;-64
2022/03/07 08:41:37;;;;;;;1.40;0.70;;;4.80;99.90;;;;;;4434820;32;20128;-64
2022/03/07 08:44:03;;;;;;;0.62;0.62;;;4.80;99.90;;;;;;4436185;32;20572;-63
2022/03/07 08:46:28;;;;;;;0.50;0.50;;;4.80;99.90;;;;;;4435276;32;20147;-64
2022/03/07 08:48:54;;;;;;;1.30;1.20;;;4.90;99.90;;;;;;4430670;32;20064;-64
2022/03/07 08:51:20;;;;;;;0.40;0.40;;;5.00;99.90;;;;;;4435362;32;20132;-64
2022/03/07 08:53:45;;;;;;;0.68;0.68;;;5.10;99.90;;;;;;4434708;32;20090;-64
2022/03/07 08:56:12;;;;;;;0.30;0.30;;;5.30;99.90;;;;;;4436503;32;20065;-64
2022/03/07 08:58:37;;;;;;;0.70;0.70;;;5.20;99.90;;;;;;4441825;32;20045;-64
2022/03/07 09:01:03;;;;;;;0.45;0.45;;;5.30;99.90;;;;;;4440983;32;20200;-64
2022/03/07 09:03:29;;;;;;;0.40;0.40;;;5.40;99.90;;;;;;4429058;32;20433;-65
2022/03/07 09:05:54;;;;;;;3.00;1.52;;;5.60;99.90;;;;;;4434477;32;20408;-64
2022/03/07 09:08:20;;;;;;;0.65;0.65;;;5.60;99.90;;;;;;4428205;32;20076;-64
2022/03/07 09:10:45;;;;;;;0.40;0.40;;;5.70;99.90;;;;;;4438683;32;20430;-64
2022/03/07 09:13:11;;;;;;;2.40;0.90;;;5.90;99.90;;;;;;4438484;32;20057;-64
2022/03/07 09:15:36;;;;;;;0.40;0.40;;;6.00;99.90;;;;;;4428140;32;20206;-64
2022/03/07 09:18:02;;;;;;;1.10;0.82;;;6.10;99.90;;;;;;4441917;32;20065;-64
2022/03/07 09:20:27;;;;;;;0.65;0.60;;;6.10;99.90;;;;;;4426258;32;20580;-64
2022/03/07 09:22:53;;;;;;;0.65;0.65;;;6.20;99.90;;;;;;4438473;32;20256;-64
2022/03/07 09:25:19;;;;;;;9.02;2.83;;;6.20;99.90;;;;;;4439602;32;20082;-64
2022/03/07 09:27:45;;;;;;;0.47;0.47;;;6.30;99.90;;;;;;4439993;32;20081;-64
2022/03/07 09:30:13;;;;;;;0.40;0.40;;;6.40;99.90;;;;;;4429521;32;20069;-64
2022/03/07 09:32:39;;;;;;;1.52;1.35;;;6.50;99.90;;;;;;4429137;32;20386;-64
2022/03/07 09:35:05;;;;;;;1.98;1.30;;;6.60;99.90;;;;;;4438084;32;20093;-64
2022/03/07 09:37:31;;;;;;;0.82;0.62;;;6.80;99.90;;;;;;4427188;32;20116;-63
2022/03/07 09:39:56;;;;;;;2.85;1.12;;;6.90;99.90;;;;;;4427999;32;20072;-64
2022/03/07 09:42:22;;;;;;;0.98;0.70;;;7.00;99.90;;;;;;4437289;32;20069;-63
2022/03/07 09:44:48;;;;;;;0.40;0.40;;;7.10;99.90;;;;;;4443743;32;20085;-64
2022/03/07 09:47:15;;;;;;;0.60;0.60;;;7.20;99.90;;;;;;4441246;32;20073;-64
2022/03/07 09:49:40;;;;;;;1.15;0.68;;;7.40;99.90;;;;;;4428872;32;20072;-64
2022/03/07 09:52:06;;;;;;;0.60;0.60;;;7.50;99.90;;;;;;4437553;32;20442;-64
2022/03/07 09:54:32;;;;;;;0.68;0.68;;;7.60;99.90;;;;;;4434555;32;20115;-64
2022/03/07 09:56:57;;;;;;;0.70;0.70;;;7.70;99.90;;;;;;4437206;32;20060;-64
2022/03/07 09:59:23;;;;;;;0.40;0.40;;;7.90;99.90;;;;;;4441608;32;20101;-64
2022/03/07 10:02:07;;;;;;;0.70;0.70;;;8.00;99.90;;;;;;4415344;32;20065;-64
2022/03/07 10:04:40;;;;;;;0.35;0.35;;;8.30;99.90;;;;;;4430875;32;20100;-64
2022/03/07 10:07:05;;;;;;;0.37;0.37;;;8.30;99.90;;;;;;4435338;32;20096;-64
2022/03/07 10:09:31;;;;;;;1.37;1.02;;;8.40;99.90;;;;;;4436817;32;20081;-64
2022/03/07 10:12:00;;;;;;;0.50;0.50;;;8.50;99.90;;;;;;4431957;32;20431;-64
2022/03/07 10:14:31;;;;;;;1.15;0.93;;;8.30;99.90;;;;;;4441569;32;20085;-64
2022/03/07 10:16:57;;;;;;;1.23;0.55;;;8.40;99.90;;;;;;4426005;32;20068;-64
2022/03/07 10:19:22;;;;;;;0.82;0.82;;;8.60;99.90;;;;;;4428187;32;20582;-65
2022/03/07 10:21:50;;;;;;;5.03;1.00;;;8.70;99.90;;;;;;4435137;32;20065;-64
2022/03/07 10:24:16;;;;;;;0.32;0.32;;;8.90;99.90;;;;;;4433181;32;20112;-64
2022/03/07 10:26:42;;;;;;;1.35;0.77;;;8.90;99.90;;;;;;4433607;32;20105;-64
2022/03/07 10:29:08;;;;;;;1.40;0.85;;;9.20;99.90;;;;;;4435993;32;20108;-64
2022/03/07 10:31:33;;;;;;;0.35;0.35;;;9.20;99.90;;;;;;4439496;32;20528;-64
2022/03/07 10:34:02;;;;;;;0.32;0.32;;;9.30;99.90;;;;;;4432615;32;20341;-64
2022/03/07 10:36:31;;;;;;;0.43;0.43;;;9.40;99.90;;;;;;4435630;32;20072;-64
2022/03/07 10:38:56;;;;;;;1.30;0.60;;;9.30;99.90;;;;;;4425729;32;20089;-64
2022/03/07 10:41:32;;;;;;;0.30;0.30;;;9.20;99.90;;;;;;4440357;32;20512;-64
2022/03/07 10:43:58;;;;;;;0.47;0.47;;;9.30;99.90;;;;;;4443686;32;20082;-64
2022/03/07 10:46:26;;;;;;;0.40;0.40;;;9.40;99.90;;;;;;4440127;32;20538;-64
2022/03/07 10:48:51;;;;;;;0.45;0.45;;;9.60;99.90;;;;;;4426906;32;20090;-64
2022/03/07 10:51:18;;;;;;;0.30;0.30;;;9.40;99.90;;;;;;4439504;32;20065;-64
2022/03/07 10:53:45;;;;;;;0.40;0.40;;;9.50;99.90;;;;;;4436481;32;20097;-65
2022/03/07 10:56:13;;;;;;;0.40;0.40;;;9.40;99.90;;;;;;4429453;32;20544;-64
2022/03/07 10:58:47;;;;;;;0.60;0.60;;;9.20;99.90;;;;;;4429659;32;20439;-65
2022/03/07 11:01:13;;;;;;;0.43;0.43;;;9.30;99.60;;;;;;4433909;32;20148;-64
2022/03/07 11:03:38;;;;;;;0.85;0.75;;;9.30;99.20;;;;;;4425722;32;20176;-64
2022/03/07 11:06:04;;;;;;;0.85;0.62;;;9.40;99.90;;;;;;4434992;32;20076;-64
2022/03/07 11:08:30;;;;;;;0.40;0.40;;;9.70;99.60;;;;;;4437303;32;20579;-64
2022/03/07 11:10:59;;;;;;;0.50;0.50;;;9.70;98.10;;;;;;4427416;32;20069;-64
2022/03/07 11:13:28;;;;;;;0.40;0.40;;;9.80;98.70;;;;;;4428250;32;20151;-64
2022/03/07 11:15:56;;;;;;;0.30;0.30;;;9.80;99.20;;;;;;4433693;32;20096;-64
2022/03/07 11:18:22;;;;;;;0.77;0.35;;;9.80;99.00;;;;;;4429850;32;20060;-64
2022/03/07 11:20:49;;;;;;;5.93;1.05;;;9.90;99.70;;;;;;4428361;32;20081;-64
2022/03/07 11:23:17;;;;;;;0.45;0.45;;;10.00;99.00;;;;;;4444720;32;20069;-65
2022/03/07 11:25:45;;;;;;;2.20;0.98;;;10.00;98.40;;;;;;4437849;32;20525;-64
2022/03/07 11:28:11;;;;;;;0.40;0.40;;;10.30;98.70;;;;;;4427486;32;20069;-64
2022/03/07 11:30:41;;;;;;;2.00;1.17;;;10.30;96.90;;;;;;4430847;32;20173;-64
2022/03/07 11:33:12;;;;;;;0.60;0.60;;;10.30;96.90;;;;;;4431089;32;20487;-64
2022/03/07 11:35:53;;;;;;;;;;;10.70;97.30;;;;;;4417787;32;20459;-66
2022/03/07 11:38:23;;;;;;;0.30;0.30;;;11.00;97.50;;;;;;4425765;32;19948;-65
2022/03/07 11:40:59;;;;;;;0.30;0.30;;;11.30;93.00;;;;;;4426356;32;20093;-65
2022/03/07 11:43:26;;;;;;;0.73;0.68;;;11.50;93.80;;;;;;4438057;32;20058;-64
2022/03/07 11:45:53;;;;;;;0.65;0.65;;;11.80;94.90;;;;;;4430872;32;20132;-64
2022/03/07 11:48:19;;;;;;;0.40;0.40;;;11.80;93.40;;;;;;4435019;32;20421;-64
2022/03/07 11:50:45;;;;;;;3.33;0.50;;;11.80;92.80;;;;;;4418950;32;20065;-64
2022/03/07 11:53:10;;;;;;;0.40;0.40;;;12.10;91.10;;;;;;4440954;32;20089;-65
2022/03/07 11:55:47;;;;;;;0.82;0.45;;;12.10;91.30;;;;;;4442682;32;20088;-65
2022/03/07 11:58:13;;;;;;;0.35;0.35;;;12.30;90.70;;;;;;4436344;32;20053;-64
2022/03/07 12:00:38;;;;;;;0.50;0.50;;;12.70;88.50;;;;;;4438860;32;20143;-63
2022/03/07 12:03:15;;;;;;;1.25;0.50;;;12.70;86.90;;;;;;4426628;32;20078;-63
2022/03/07 12:05:43;;;;;;;0.73;0.45;;;13.10;87.30;;;;;;4427053;32;20097;-65
2022/03/07 12:08:12;;;;;;;0.40;0.40;;;13.20;86.00;;;;;;4428304;32;20065;-64
2022/03/07 12:10:51;;;;;;;0.60;0.60;;;13.10;85.70;;;;;;4437290;32;20072;-64
2022/03/07 12:13:16;;;;;;;0.50;0.50;;;13.00;85.80;;;;;;4427312;32;20093;-64
2022/03/07 12:15:45;;;;;;;0.50;0.50;;;13.30;85.40;;;;;;4432179;32;20085;-64
2022/03/07 12:18:11;;;;;;;0.30;0.30;;;13.40;83.50;;;;;;4427533;32;20821;-65
2022/03/07 12:20:58;;;;;;;0.40;0.40;;;13.20;85.00;;;;;;4415611;32;20062;-64
2022/03/07 12:23:28;;;;;;;0.30;0.30;;;13.30;83.70;;;;;;4419879;32;20443;-64
2022/03/07 12:25:58;;;;;;;0.70;0.68;;;13.20;83.80;;;;;;4415111;32;20119;-64
2022/03/07 12:28:28;;;;;;;0.50;0.50;;;13.40;82.70;;;;;;4417151;32;20449;-64
2022/03/07 12:30:55;;;;;;;0.40;0.40;;;13.80;81.20;;;;;;4414407;32;20149;-64
2022/03/07 12:33:20;;;;;;;0.30;0.30;;;13.90;81.70;;;;;;4428206;32;20068;-65
2022/03/07 12:35:46;;;;;;;0.40;0.40;;;14.20;79.80;;;;;;4436689;32;20136;-65
2022/03/07 12:38:11;;;;;;;0.30;0.30;;;14.40;78.60;;;;;;4438037;32;20256;-64
2022/03/07 12:40:38;;;;;;;2.05;0.50;;;14.70;75.30;;;;;;4435440;32;20081;-64
2022/03/07 12:43:05;;;;;;;2.90;0.50;;;14.40;77.70;;;;;;4439273;32;20072;-64
2022/03/07 12:45:31;;;;;;;1.65;0.80;;;14.10;78.80;;;;;;4427580;32;20057;-64
2022/03/07 12:47:56;;;;;;;0.50;0.50;;;14.30;75.70;;;;;;4426646;32;20073;-64
2022/03/07 12:50:26;;;;;;;0.50;0.50;;;14.80;77.60;;;;;;4425243;32;20057;-64